Terminal Aerodrome Forecast
Issued by NWS Tallahassee, FL

Home | Current Version | Previous Version | Text Only | Print | Product List | Glossary On
Versions: 1 2 3 4 5 6 7 8 9 10 11 12 13 14 15 16 17 18 19 20 21 22
847
FTUS42 KTAE 060524
TAFTLH
TAF
KTLH 060524Z 0606/0706 20010KT P6SM VCSH SCT015
      TEMPO 0606/0610 4SM SHRA BKN010
     FM061000 21010KT 2SM TSRA BKN008CB
     FM061500 23012G20KT P6SM SCT020
     FM070100 27008KT P6SM BKN015=

USA.gov is the U.S. government's official web portal to all federal, state and local government web resources and services.